sensor_id;sensor_type;location;lat;lon;timestamp;pressure;altitude;pressure_sealevel;temperature;humidity
77410;BME280;66481;51.332;22.804;2023-06-26T00:01:30;99496.84;;;14.13;94.08
77410;BME280;66481;51.332;22.804;2023-06-26T00:05:32;99479.06;;;14.03;94.11
77410;BME280;66481;51.332;22.804;2023-06-26T00:09:34;99486.06;;;13.75;94.51
77410;BME280;66481;51.332;22.804;2023-06-26T00:13:35;99491.66;;;13.62;94.84
77410;BME280;66481;51.332;22.804;2023-06-26T00:17:37;99496.53;;;13.67;95.11
77410;BME280;66481;51.332;22.804;2023-06-26T00:21:38;99491.09;;;13.59;95.36
77410;BME280;66481;51.332;22.804;2023-06-26T00:25:39;99494.72;;;13.58;96.18
77410;BME280;66481;51.332;22.804;2023-06-26T00:29:40;99502.25;;;13.52;95.51
77410;BME280;66481;51.332;22.804;2023-06-26T00:33:41;99507.72;;;13.51;95.32
77410;BME280;66481;51.332;22.804;2023-06-26T00:37:42;99509.81;;;13.47;94.55
77410;BME280;66481;51.332;22.804;2023-06-26T00:41:43;99507.59;;;13.52;94.86
77410;BME280;66481;51.332;22.804;2023-06-26T00:45:45;99506.34;;;13.57;95.16
77410;BME280;66481;51.332;22.804;2023-06-26T00:49:47;99497.94;;;13.51;95.94
77410;BME280;66481;51.332;22.804;2023-06-26T00:53:48;99486.88;;;13.56;95.19
77410;BME280;66481;51.332;22.804;2023-06-26T00:57:50;99489.66;;;13.54;94.76
77410;BME280;66481;51.332;22.804;2023-06-26T01:01:51;99487.31;;;13.51;94.04
77410;BME280;66481;51.332;22.804;2023-06-26T01:05:52;99488.53;;;13.47;94.38
77410;BME280;66481;51.332;22.804;2023-06-26T01:09:55;99487.56;;;13.58;94.04
77410;BME280;66481;51.332;22.804;2023-06-26T01:13:57;99510.53;;;13.59;93.94
77410;BME280;66481;51.332;22.804;2023-06-26T01:18:00;99508.56;;;13.51;93.68
77410;BME280;66481;51.332;22.804;2023-06-26T01:22:16;99507.69;;;13.31;94.39
77410;BME280;66481;51.332;22.804;2023-06-26T01:26:22;99523.66;;;13.10;95.41
77410;BME280;66481;51.332;22.804;2023-06-26T01:30:23;99520.44;;;13.07;95.97
77410;BME280;66481;51.332;22.804;2023-06-26T01:34:26;99522.53;;;13.03;95.43
77410;BME280;66481;51.332;22.804;2023-06-26T01:38:27;99505.00;;;12.91;95.34
77410;BME280;66481;51.332;22.804;2023-06-26T01:42:28;99502.09;;;12.63;96.28
77410;BME280;66481;51.332;22.804;2023-06-26T01:46:42;99512.50;;;12.55;96.51
77410;BME280;66481;51.332;22.804;2023-06-26T01:50:44;99514.38;;;12.43;96.38
77410;BME280;66481;51.332;22.804;2023-06-26T01:54:52;99526.03;;;12.31;96.82
77410;BME280;66481;51.332;22.804;2023-06-26T01:58:54;99527.31;;;12.15;97.25
77410;BME280;66481;51.332;22.804;2023-06-26T02:02:57;99534.47;;;12.03;97.34
77410;BME280;66481;51.332;22.804;2023-06-26T02:06:58;99536.22;;;12.14;97.13
77410;BME280;66481;51.332;22.804;2023-06-26T02:10:59;99517.94;;;12.11;97.66
77410;BME280;66481;51.332;22.804;2023-06-26T02:15:00;99546.66;;;12.06;98.17
77410;BME280;66481;51.332;22.804;2023-06-26T02:19:01;99549.91;;;12.10;97.58
77410;BME280;66481;51.332;22.804;2023-06-26T02:23:02;99507.63;;;12.18;97.68
77410;BME280;66481;51.332;22.804;2023-06-26T02:27:03;99525.97;;;12.42;97.32
77410;BME280;66481;51.332;22.804;2023-06-26T02:31:04;99511.66;;;12.85;96.89
77410;BME280;66481;51.332;22.804;2023-06-26T02:35:06;99504.22;;;13.50;95.12
77410;BME280;66481;51.332;22.804;2023-06-26T02:39:07;99536.63;;;14.14;91.16
77410;BME280;66481;51.332;22.804;2023-06-26T02:43:08;99537.16;;;14.47;88.49
77410;BME280;66481;51.332;22.804;2023-06-26T02:47:09;99540.88;;;15.21;86.70
77410;BME280;66481;51.332;22.804;2023-06-26T02:51:10;99535.56;;;15.76;83.77
77410;BME280;66481;51.332;22.804;2023-06-26T02:55:11;99540.50;;;15.89;81.24
77410;BME280;66481;51.332;22.804;2023-06-26T02:59:12;99545.28;;;16.58;80.05
77410;BME280;66481;51.332;22.804;2023-06-26T03:03:14;99534.88;;;15.92;81.51
77410;BME280;66481;51.332;22.804;2023-06-26T03:07:15;99505.84;;;15.16;85.28
77410;BME280;66481;51.332;22.804;2023-06-26T03:11:16;99534.66;;;15.02;87.36
77410;BME280;66481;51.332;22.804;2023-06-26T03:15:17;99520.25;;;14.85;88.62
77410;BME280;66481;51.332;22.804;2023-06-26T03:19:20;99551.59;;;14.64;89.68
77410;BME280;66481;51.332;22.804;2023-06-26T03:23:20;99544.84;;;14.70;90.31
77410;BME280;66481;51.332;22.804;2023-06-26T03:27:21;99556.50;;;15.06;90.62
77410;BME280;66481;51.332;22.804;2023-06-26T03:31:23;99537.66;;;16.97;85.79
77410;BME280;66481;51.332;22.804;2023-06-26T03:35:24;99545.91;;;18.71;76.34
77410;BME280;66481;51.332;22.804;2023-06-26T03:39:25;99474.66;;;20.10;70.00
77410;BME280;66481;51.332;22.804;2023-06-26T03:43:26;99475.44;;;21.02;66.51
77410;BME280;66481;51.332;22.804;2023-06-26T03:47:27;99535.09;;;21.35;65.35
77410;BME280;66481;51.332;22.804;2023-06-26T03:51:28;99530.41;;;22.17;61.16
77410;BME280;66481;51.332;22.804;2023-06-26T03:55:30;99535.47;;;22.48;60.00
77410;BME280;66481;51.332;22.804;2023-06-26T03:59:31;99527.88;;;23.15;58.27
77410;BME280;66481;51.332;22.804;2023-06-26T04:03:33;99528.50;;;23.79;55.53
77410;BME280;66481;51.332;22.804;2023-06-26T04:07:36;99523.38;;;23.97;54.96
77410;BME280;66481;51.332;22.804;2023-06-26T04:11:37;99516.56;;;24.28;54.27
77410;BME280;66481;51.332;22.804;2023-06-26T04:15:38;99518.00;;;24.44;52.88
77410;BME280;66481;51.332;22.804;2023-06-26T04:19:40;99507.19;;;24.71;52.68
77410;BME280;66481;51.332;22.804;2023-06-26T04:23:41;99513.38;;;24.98;50.94
77410;BME280;66481;51.332;22.804;2023-06-26T04:27:42;99518.63;;;25.58;50.04
77410;BME280;66481;51.332;22.804;2023-06-26T04:31:44;99517.88;;;25.76;49.20
77410;BME280;66481;51.332;22.804;2023-06-26T04:35:48;99512.50;;;26.33;48.13
77410;BME280;66481;51.332;22.804;2023-06-26T04:39:50;99516.66;;;26.86;48.26
77410;BME280;66481;51.332;22.804;2023-06-26T04:43:51;99513.66;;;27.13;46.98
77410;BME280;66481;51.332;22.804;2023-06-26T04:47:51;99497.44;;;27.73;45.37
77410;BME280;66481;51.332;22.804;2023-06-26T04:51:53;99505.41;;;28.29;43.74
77410;BME280;66481;51.332;22.804;2023-06-26T04:55:54;99499.91;;;28.59;43.60
77410;BME280;66481;51.332;22.804;2023-06-26T04:59:55;99498.28;;;29.22;41.38
77410;BME280;66481;51.332;22.804;2023-06-26T05:03:56;99499.50;;;29.03;43.18
77410;BME280;66481;51.332;22.804;2023-06-26T05:07:57;99490.91;;;29.63;40.70
77410;BME280;66481;51.332;22.804;2023-06-26T05:11:58;99497.06;;;30.16;39.91
77410;BME280;66481;51.332;22.804;2023-06-26T05:15:59;99486.63;;;30.64;36.18
77410;BME280;66481;51.332;22.804;2023-06-26T05:20:00;99486.53;;;30.93;36.69
77410;BME280;66481;51.332;22.804;2023-06-26T05:24:02;99491.38;;;30.52;36.62
77410;BME280;66481;51.332;22.804;2023-06-26T05:28:03;99458.63;;;31.62;35.32
77410;BME280;66481;51.332;22.804;2023-06-26T05:32:09;99470.03;;;31.54;34.59
77410;BME280;66481;51.332;22.804;2023-06-26T05:36:12;99476.22;;;31.22;33.33
77410;BME280;66481;51.332;22.804;2023-06-26T05:40:15;99486.47;;;31.81;34.54
77410;BME280;66481;51.332;22.804;2023-06-26T05:44:16;99469.78;;;31.83;34.68
77410;BME280;66481;51.332;22.804;2023-06-26T05:48:17;99478.84;;;32.16;34.19
77410;BME280;66481;51.332;22.804;2023-06-26T05:52:18;99457.97;;;32.42;30.27
77410;BME280;66481;51.332;22.804;2023-06-26T05:56:20;99453.00;;;33.50;28.26
77410;BME280;66481;51.332;22.804;2023-06-26T06:00:21;99458.03;;;34.35;28.51
77410;BME280;66481;51.332;22.804;2023-06-26T06:04:22;99448.09;;;33.52;29.42
77410;BME280;66481;51.332;22.804;2023-06-26T06:08:23;99457.75;;;33.96;28.72
77410;BME280;66481;51.332;22.804;2023-06-26T06:12:24;99447.88;;;34.31;30.19
77410;BME280;66481;51.332;22.804;2023-06-26T06:16:26;99442.94;;;33.76;31.19
77410;BME280;66481;51.332;22.804;2023-06-26T06:20:29;99423.91;;;33.39;31.70
77410;BME280;66481;51.332;22.804;2023-06-26T06:24:30;99422.59;;;33.67;30.04
77410;BME280;66481;51.332;22.804;2023-06-26T06:28:31;99401.59;;;34.69;30.20
77410;BME280;66481;51.332;22.804;2023-06-26T06:32:32;99425.53;;;34.73;28.61
77410;BME280;66481;51.332;22.804;2023-06-26T06:36:33;99421.72;;;35.29;26.98
77410;BME280;66481;51.332;22.804;2023-06-26T06:40:35;99427.84;;;35.61;26.12
77410;BME280;66481;51.332;22.804;2023-06-26T06:44:36;99391.16;;;35.70;26.98
77410;BME280;66481;51.332;22.804;2023-06-26T06:48:37;99413.63;;;35.48;26.42
77410;BME280;66481;51.332;22.804;2023-06-26T06:52:39;99410.41;;;36.39;25.54
77410;BME280;66481;51.332;22.804;2023-06-26T06:56:40;99410.06;;;35.87;26.56
77410;BME280;66481;51.332;22.804;2023-06-26T07:00:42;99406.34;;;35.63;26.86
77410;BME280;66481;51.332;22.804;2023-06-26T07:04:43;99411.41;;;36.48;25.35
77410;BME280;66481;51.332;22.804;2023-06-26T07:08:44;99404.38;;;37.04;24.96
77410;BME280;66481;51.332;22.804;2023-06-26T07:12:44;99401.38;;;36.82;23.10
77410;BME280;66481;51.332;22.804;2023-06-26T07:16:45;99397.84;;;36.52;24.12
77410;BME280;66481;51.332;22.804;2023-06-26T07:20:47;99403.22;;;37.11;23.78
77410;BME280;66481;51.332;22.804;2023-06-26T07:24:48;99400.25;;;37.64;23.75
77410;BME280;66481;51.332;22.804;2023-06-26T07:28:49;99382.00;;;37.63;23.09
77410;BME280;66481;51.332;22.804;2023-06-26T07:32:50;99389.84;;;38.08;20.79
77410;BME280;66481;51.332;22.804;2023-06-26T07:36:51;99393.81;;;38.01;21.02
77410;BME280;66481;51.332;22.804;2023-06-26T07:40:52;99388.03;;;36.41;20.96
77410;BME280;66481;51.332;22.804;2023-06-26T07:44:53;99386.63;;;38.19;21.87
77410;BME280;66481;51.332;22.804;2023-06-26T07:48:54;99387.09;;;38.08;21.47
77410;BME280;66481;51.332;22.804;2023-06-26T07:52:55;99377.78;;;38.04;21.89
77410;BME280;66481;51.332;22.804;2023-06-26T08:00:58;99376.72;;;36.66;21.71
77410;BME280;66481;51.332;22.804;2023-06-26T08:04:59;99377.22;;;36.74;21.77
77410;BME280;66481;51.332;22.804;2023-06-26T08:09:00;99368.22;;;36.87;21.73
77410;BME280;66481;51.332;22.804;2023-06-26T08:13:03;99370.22;;;36.81;22.13
77410;BME280;66481;51.332;22.804;2023-06-26T08:17:04;99366.94;;;36.79;22.13
77410;BME280;66481;51.332;22.804;2023-06-26T08:21:06;99366.50;;;37.67;19.37
77410;BME280;66481;51.332;22.804;2023-06-26T08:25:07;99362.75;;;38.24;19.86
77410;BME280;66481;51.332;22.804;2023-06-26T08:29:09;99372.34;;;37.66;21.29
77410;BME280;66481;51.332;22.804;2023-06-26T08:33:09;99362.03;;;37.52;20.26
77410;BME280;66481;51.332;22.804;2023-06-26T08:37:13;99367.25;;;36.78;21.51
77410;BME280;66481;51.332;22.804;2023-06-26T08:41:14;99380.09;;;35.41;22.67
77410;BME280;66481;51.332;22.804;2023-06-26T08:45:15;99372.34;;;35.48;21.13
77410;BME280;66481;51.332;22.804;2023-06-26T08:57:48;99380.00;;;33.28;23.94
77410;BME280;66481;51.332;22.804;2023-06-26T09:01:50;99375.69;;;29.85;26.76
77410;BME280;66481;51.332;22.804;2023-06-26T09:05:51;99374.78;;;32.58;26.03
77410;BME280;66481;51.332;22.804;2023-06-26T09:09:52;99371.69;;;34.57;24.01
77410;BME280;66481;51.332;22.804;2023-06-26T09:13:55;99358.34;;;33.52;23.04
77410;BME280;66481;51.332;22.804;2023-06-26T09:17:56;99372.47;;;35.28;22.21
77410;BME280;66481;51.332;22.804;2023-06-26T09:22:00;99364.19;;;35.33;21.69
77410;BME280;66481;51.332;22.804;2023-06-26T09:26:05;99369.91;;;35.81;23.05
77410;BME280;66481;51.332;22.804;2023-06-26T09:30:07;99359.13;;;36.86;20.04
77410;BME280;66481;51.332;22.804;2023-06-26T09:34:08;99345.84;;;36.21;20.78
77410;BME280;66481;51.332;22.804;2023-06-26T09:38:09;99347.88;;;35.81;21.30
77410;BME280;66481;51.332;22.804;2023-06-26T09:42:13;99343.94;;;34.53;22.56
77410;BME280;66481;51.332;22.804;2023-06-26T09:46:16;99347.50;;;31.89;26.54
77410;BME280;66481;51.332;22.804;2023-06-26T09:50:21;99355.53;;;31.68;25.82
77410;BME280;66481;51.332;22.804;2023-06-26T09:54:23;99331.34;;;33.03;25.39
77410;BME280;66481;51.332;22.804;2023-06-26T09:58:26;99333.66;;;33.88;24.00
77410;BME280;66481;51.332;22.804;2023-06-26T10:02:28;99335.13;;;31.48;23.94
77410;BME280;66481;51.332;22.804;2023-06-26T10:06:34;99328.69;;;32.02;28.91
77410;BME280;66481;51.332;22.804;2023-06-26T10:10:36;99323.94;;;32.83;24.94
77410;BME280;66481;51.332;22.804;2023-06-26T10:14:39;99315.97;;;32.23;28.33
77410;BME280;66481;51.332;22.804;2023-06-26T10:18:43;99310.88;;;30.98;28.09
77410;BME280;66481;51.332;22.804;2023-06-26T10:22:46;99310.31;;;32.40;27.01
77410;BME280;66481;51.332;22.804;2023-06-26T10:26:52;99310.25;;;32.25;30.10
77410;BME280;66481;51.332;22.804;2023-06-26T10:30:58;99311.84;;;32.69;26.92
77410;BME280;66481;51.332;22.804;2023-06-26T10:35:01;99306.38;;;31.14;27.73
77410;BME280;66481;51.332;22.804;2023-06-26T10:39:05;99297.34;;;30.42;28.00
77410;BME280;66481;51.332;22.804;2023-06-26T10:43:08;99287.38;;;29.91;27.73
77410;BME280;66481;51.332;22.804;2023-06-26T10:47:11;99297.16;;;29.87;30.14
77410;BME280;66481;51.332;22.804;2023-06-26T10:51:15;99301.38;;;30.56;28.72
77410;BME280;66481;51.332;22.804;2023-06-26T10:55:16;99302.91;;;31.23;27.00
77410;BME280;66481;51.332;22.804;2023-06-26T10:59:31;99292.84;;;32.57;29.73
77410;BME280;66481;51.332;22.804;2023-06-26T11:03:33;99277.75;;;32.54;28.61
77410;BME280;66481;51.332;22.804;2023-06-26T11:07:33;99281.22;;;33.13;26.59
77410;BME280;66481;51.332;22.804;2023-06-26T11:11:55;99286.94;;;32.91;27.70
77410;BME280;66481;51.332;22.804;2023-06-26T11:16:01;99274.91;;;32.97;25.38
77410;BME280;66481;51.332;22.804;2023-06-26T11:20:07;99267.22;;;31.73;26.69
77410;BME280;66481;51.332;22.804;2023-06-26T11:24:12;99276.38;;;29.86;28.72
77410;BME280;66481;51.332;22.804;2023-06-26T11:28:13;99274.09;;;30.88;27.59
77410;BME280;66481;51.332;22.804;2023-06-26T11:32:14;99277.69;;;31.16;28.74
77410;BME280;66481;51.332;22.804;2023-06-26T11:36:15;99270.38;;;31.22;29.66
77410;BME280;66481;51.332;22.804;2023-06-26T11:40:18;99273.47;;;31.03;28.44
77410;BME280;66481;51.332;22.804;2023-06-26T11:44:21;99262.25;;;31.70;29.56
77410;BME280;66481;51.332;22.804;2023-06-26T11:48:25;99256.44;;;31.98;27.61
77410;BME280;66481;51.332;22.804;2023-06-26T11:52:26;99259.41;;;32.45;29.58
77410;BME280;66481;51.332;22.804;2023-06-26T11:56:27;99255.34;;;32.04;27.79
77410;BME280;66481;51.332;22.804;2023-06-26T12:00:28;99244.16;;;31.26;28.33
77410;BME280;66481;51.332;22.804;2023-06-26T12:04:30;99246.72;;;30.34;30.42
77410;BME280;66481;51.332;22.804;2023-06-26T12:08:32;99257.03;;;30.76;33.17
77410;BME280;66481;51.332;22.804;2023-06-26T12:12:33;99250.50;;;30.99;31.03
77410;BME280;66481;51.332;22.804;2023-06-26T12:16:35;99241.91;;;30.63;31.40
77410;BME280;66481;51.332;22.804;2023-06-26T12:20:40;99234.63;;;30.74;31.95
77410;BME280;66481;51.332;22.804;2023-06-26T12:24:42;99229.66;;;30.93;30.92
77410;BME280;66481;51.332;22.804;2023-06-26T12:28:44;99232.19;;;31.00;30.22
77410;BME280;66481;51.332;22.804;2023-06-26T12:32:47;99225.84;;;30.45;29.73
77410;BME280;66481;51.332;22.804;2023-06-26T12:36:49;99225.16;;;29.71;32.69
77410;BME280;66481;51.332;22.804;2023-06-26T12:40:51;99216.75;;;29.39;32.39
77410;BME280;66481;51.332;22.804;2023-06-26T12:44:53;99209.91;;;29.92;32.40
77410;BME280;66481;51.332;22.804;2023-06-26T12:48:58;99205.88;;;30.66;32.51
77410;BME280;66481;51.332;22.804;2023-06-26T12:52:59;99207.88;;;30.49;30.68
77410;BME280;66481;51.332;22.804;2023-06-26T12:57:00;99200.91;;;30.36;32.58
77410;BME280;66481;51.332;22.804;2023-06-26T13:01:06;99201.16;;;29.90;33.22
77410;BME280;66481;51.332;22.804;2023-06-26T13:05:26;99196.47;;;29.69;33.38
77410;BME280;66481;51.332;22.804;2023-06-26T13:09:31;99193.03;;;29.22;33.07
77410;BME280;66481;51.332;22.804;2023-06-26T13:13:34;99195.47;;;28.44;34.21
77410;BME280;66481;51.332;22.804;2023-06-26T13:17:35;99194.47;;;27.93;36.70
77410;BME280;66481;51.332;22.804;2023-06-26T13:21:36;99187.47;;;27.73;38.10
77410;BME280;66481;51.332;22.804;2023-06-26T13:25:38;99185.22;;;27.94;37.46
77410;BME280;66481;51.332;22.804;2023-06-26T13:29:39;99175.53;;;28.27;38.26
77410;BME280;66481;51.332;22.804;2023-06-26T13:33:40;99176.41;;;28.73;35.90
77410;BME280;66481;51.332;22.804;2023-06-26T13:37:41;99161.19;;;28.03;34.63
77410;BME280;66481;51.332;22.804;2023-06-26T13:41:44;99158.88;;;28.23;34.92
77410;BME280;66481;51.332;22.804;2023-06-26T13:45:46;99159.44;;;28.25;36.78
77410;BME280;66481;51.332;22.804;2023-06-26T13:49:47;99147.66;;;28.48;35.67
77410;BME280;66481;51.332;22.804;2023-06-26T13:53:48;99142.09;;;28.55;34.60
77410;BME280;66481;51.332;22.804;2023-06-26T13:57:49;99132.31;;;28.30;34.74
77410;BME280;66481;51.332;22.804;2023-06-26T14:01:50;99122.91;;;27.81;34.01
77410;BME280;66481;51.332;22.804;2023-06-26T14:05:51;99127.50;;;27.80;35.80
77410;BME280;66481;51.332;22.804;2023-06-26T14:09:52;99110.97;;;27.82;35.29
77410;BME280;66481;51.332;22.804;2023-06-26T14:13:53;99118.84;;;28.07;34.22
77410;BME280;66481;51.332;22.804;2023-06-26T14:17:54;99109.78;;;28.18;34.29
77410;BME280;66481;51.332;22.804;2023-06-26T14:21:56;99102.22;;;27.91;34.69
77410;BME280;66481;51.332;22.804;2023-06-26T14:25:56;99104.41;;;28.06;33.12
77410;BME280;66481;51.332;22.804;2023-06-26T14:29:58;99107.53;;;27.98;33.47
77410;BME280;66481;51.332;22.804;2023-06-26T14:33:59;99093.59;;;27.94;34.83
77410;BME280;66481;51.332;22.804;2023-06-26T14:38:00;99098.91;;;27.89;34.79
77410;BME280;66481;51.332;22.804;2023-06-26T14:42:01;99084.13;;;27.85;33.62
77410;BME280;66481;51.332;22.804;2023-06-26T14:46:02;99069.59;;;27.91;32.89
77410;BME280;66481;51.332;22.804;2023-06-26T14:50:03;99077.84;;;27.85;33.45
77410;BME280;66481;51.332;22.804;2023-06-26T14:54:04;99079.03;;;27.77;31.59
77410;BME280;66481;51.332;22.804;2023-06-26T14:58:05;99073.50;;;27.72;32.76
77410;BME280;66481;51.332;22.804;2023-06-26T15:02:06;99065.53;;;27.53;33.39
77410;BME280;66481;51.332;22.804;2023-06-26T15:06:07;99067.22;;;27.19;34.54
77410;BME280;66481;51.332;22.804;2023-06-26T15:10:09;99064.28;;;27.20;34.06
77410;BME280;66481;51.332;22.804;2023-06-26T15:14:10;99061.31;;;27.22;33.68
77410;BME280;66481;51.332;22.804;2023-06-26T15:18:11;99059.31;;;27.17;33.51
77410;BME280;66481;51.332;22.804;2023-06-26T15:22:13;99053.75;;;27.24;34.91
77410;BME280;66481;51.332;22.804;2023-06-26T15:26:15;99039.13;;;27.13;35.06
77410;BME280;66481;51.332;22.804;2023-06-26T15:30:17;99042.31;;;26.98;35.22
77410;BME280;66481;51.332;22.804;2023-06-26T15:34:19;99034.41;;;26.97;36.42
77410;BME280;66481;51.332;22.804;2023-06-26T15:38:20;99035.25;;;26.86;33.98
77410;BME280;66481;51.332;22.804;2023-06-26T15:42:21;99032.66;;;26.91;35.28
77410;BME280;66481;51.332;22.804;2023-06-26T15:46:24;99027.94;;;26.98;35.35
77410;BME280;66481;51.332;22.804;2023-06-26T15:50:25;99013.84;;;27.01;35.05
77410;BME280;66481;51.332;22.804;2023-06-26T15:54:26;99013.97;;;27.06;34.03
77410;BME280;66481;51.332;22.804;2023-06-26T15:58:29;99008.47;;;26.89;32.74
77410;BME280;66481;51.332;22.804;2023-06-26T16:02:31;99003.38;;;26.81;32.36
77410;BME280;66481;51.332;22.804;2023-06-26T16:06:32;98999.38;;;26.72;33.03
77410;BME280;66481;51.332;22.804;2023-06-26T16:10:33;99002.63;;;26.50;35.06
77410;BME280;66481;51.332;22.804;2023-06-26T16:14:34;99001.09;;;26.42;36.74
77410;BME280;66481;51.332;22.804;2023-06-26T16:18:35;99006.03;;;26.45;36.20
77410;BME280;66481;51.332;22.804;2023-06-26T16:22:37;98999.09;;;26.50;37.65
77410;BME280;66481;51.332;22.804;2023-06-26T16:26:40;98998.16;;;26.44;36.09
77410;BME280;66481;51.332;22.804;2023-06-26T16:30:41;98987.28;;;26.32;37.32
77410;BME280;66481;51.332;22.804;2023-06-26T16:34:42;98994.13;;;26.35;37.66
77410;BME280;66481;51.332;22.804;2023-06-26T16:38:43;98999.53;;;26.35;39.31
77410;BME280;66481;51.332;22.804;2023-06-26T16:42:44;98988.19;;;26.14;38.10
77410;BME280;66481;51.332;22.804;2023-06-26T16:46:46;98998.47;;;25.82;38.49
77410;BME280;66481;51.332;22.804;2023-06-26T16:50:47;99002.59;;;25.54;39.36
77410;BME280;66481;51.332;22.804;2023-06-26T16:54:48;99004.94;;;25.32;40.38
77410;BME280;66481;51.332;22.804;2023-06-26T16:58:50;99005.19;;;25.05;41.46
77410;BME280;66481;51.332;22.804;2023-06-26T17:02:51;99005.44;;;24.85;42.10
77410;BME280;66481;51.332;22.804;2023-06-26T17:06:52;99005.81;;;24.64;42.52
77410;BME280;66481;51.332;22.804;2023-06-26T17:10:54;99010.31;;;24.45;45.88
77410;BME280;66481;51.332;22.804;2023-06-26T17:14:55;99003.00;;;24.27;45.52
77410;BME280;66481;51.332;22.804;2023-06-26T17:18:56;99009.59;;;24.31;44.74
77410;BME280;66481;51.332;22.804;2023-06-26T17:22:57;99006.22;;;24.42;44.57
77410;BME280;66481;51.332;22.804;2023-06-26T17:27:13;99011.22;;;24.38;45.91
77410;BME280;66481;51.332;22.804;2023-06-26T17:31:21;99016.53;;;24.27;47.46
77410;BME280;66481;51.332;22.804;2023-06-26T17:35:22;99022.00;;;24.13;50.15
77410;BME280;66481;51.332;22.804;2023-06-26T17:39:24;99020.03;;;24.02;47.03
77410;BME280;66481;51.332;22.804;2023-06-26T17:43:26;99013.84;;;23.95;47.92
77410;BME280;66481;51.332;22.804;2023-06-26T17:47:28;99025.72;;;23.80;48.80
77410;BME280;66481;51.332;22.804;2023-06-26T17:51:29;99017.28;;;23.63;48.83
77410;BME280;66481;51.332;22.804;2023-06-26T17:55:31;99023.19;;;23.47;51.15
77410;BME280;66481;51.332;22.804;2023-06-26T17:59:33;99023.44;;;23.32;52.67
77410;BME280;66481;51.332;22.804;2023-06-26T18:03:34;99023.72;;;23.11;54.88
77410;BME280;66481;51.332;22.804;2023-06-26T18:07:36;99015.63;;;22.84;52.85
77410;BME280;66481;51.332;22.804;2023-06-26T18:11:39;99036.19;;;22.71;53.50
77410;BME280;66481;51.332;22.804;2023-06-26T18:15:41;99027.94;;;22.53;54.80
77410;BME280;66481;51.332;22.804;2023-06-26T18:19:42;99029.16;;;22.30;58.18
77410;BME280;66481;51.332;22.804;2023-06-26T18:23:43;99030.16;;;22.16;56.08
77410;BME280;66481;51.332;22.804;2023-06-26T18:27:44;99019.94;;;21.91;55.45
77410;BME280;66481;51.332;22.804;2023-06-26T18:31:45;99030.09;;;21.83;56.10
77410;BME280;66481;51.332;22.804;2023-06-26T18:35:48;99028.53;;;21.53;57.37
77410;BME280;66481;51.332;22.804;2023-06-26T18:39:48;99022.03;;;21.41;56.05
77410;BME280;66481;51.332;22.804;2023-06-26T18:43:50;99024.28;;;21.31;59.08
77410;BME280;66481;51.332;22.804;2023-06-26T18:48:13;99031.63;;;21.15;56.54
77410;BME280;66481;51.332;22.804;2023-06-26T18:52:14;99033.09;;;20.83;60.72
77410;BME280;66481;51.332;22.804;2023-06-26T18:56:15;99027.31;;;20.58;64.47
77410;BME280;66481;51.332;22.804;2023-06-26T19:00:17;99037.06;;;20.37;66.46
77410;BME280;66481;51.332;22.804;2023-06-26T19:04:19;99033.50;;;20.30;64.37
77410;BME280;66481;51.332;22.804;2023-06-26T19:08:23;99039.81;;;20.22;66.03
77410;BME280;66481;51.332;22.804;2023-06-26T19:12:28;99035.97;;;20.10;66.96
77410;BME280;66481;51.332;22.804;2023-06-26T19:16:30;99030.09;;;20.00;65.01
77410;BME280;66481;51.332;22.804;2023-06-26T19:20:31;99035.97;;;19.88;64.14
77410;BME280;66481;51.332;22.804;2023-06-26T19:24:33;99035.72;;;19.83;63.04
77410;BME280;66481;51.332;22.804;2023-06-26T19:28:35;99032.56;;;19.80;64.79
77410;BME280;66481;51.332;22.804;2023-06-26T19:32:38;99038.22;;;19.55;68.20
77410;BME280;66481;51.332;22.804;2023-06-26T19:36:48;99035.69;;;19.32;69.51
77410;BME280;66481;51.332;22.804;2023-06-26T19:40:52;99024.50;;;19.28;69.04
77410;BME280;66481;51.332;22.804;2023-06-26T19:44:53;99026.16;;;19.29;69.60
77410;BME280;66481;51.332;22.804;2023-06-26T19:48:55;99028.44;;;19.32;69.56
77410;BME280;66481;51.332;22.804;2023-06-26T19:52:57;99008.94;;;19.24;70.59
77410;BME280;66481;51.332;22.804;2023-06-26T19:56:59;99008.75;;;19.25;68.39
77410;BME280;66481;51.332;22.804;2023-06-26T20:01:00;99021.53;;;19.08;72.53
77410;BME280;66481;51.332;22.804;2023-06-26T20:05:03;99013.34;;;18.72;74.86
77410;BME280;66481;51.332;22.804;2023-06-26T20:09:06;99018.13;;;18.85;71.23
77410;BME280;66481;51.332;22.804;2023-06-26T20:13:07;99011.41;;;18.80;73.11
77410;BME280;66481;51.332;22.804;2023-06-26T20:17:09;99009.13;;;18.77;70.36
77410;BME280;66481;51.332;22.804;2023-06-26T20:21:11;99006.75;;;18.83;70.21
77410;BME280;66481;51.332;22.804;2023-06-26T20:25:13;99002.81;;;18.70;70.67
77410;BME280;66481;51.332;22.804;2023-06-26T20:29:14;98997.63;;;18.54;71.93
77410;BME280;66481;51.332;22.804;2023-06-26T20:33:16;98988.72;;;18.38;72.34
77410;BME280;66481;51.332;22.804;2023-06-26T20:37:18;98989.19;;;18.42;71.99
77410;BME280;66481;51.332;22.804;2023-06-26T20:41:19;98987.25;;;18.36;72.43
77410;BME280;66481;51.332;22.804;2023-06-26T20:45:21;98986.97;;;18.08;77.02
77410;BME280;66481;51.332;22.804;2023-06-26T20:49:24;98989.69;;;17.76;78.87
77410;BME280;66481;51.332;22.804;2023-06-26T20:53:26;98987.53;;;17.72;77.02
77410;BME280;66481;51.332;22.804;2023-06-26T20:57:27;98986.47;;;17.89;75.04
77410;BME280;66481;51.332;22.804;2023-06-26T21:01:29;98971.41;;;17.88;75.48
77410;BME280;66481;51.332;22.804;2023-06-26T21:05:31;98973.72;;;17.91;74.98
77410;BME280;66481;51.332;22.804;2023-06-26T21:09:31;98972.88;;;17.91;75.74
77410;BME280;66481;51.332;22.804;2023-06-26T21:13:33;98973.44;;;17.86;76.26
77410;BME280;66481;51.332;22.804;2023-06-26T21:17:35;98956.56;;;17.77;76.61